Time;durP1;ratioP1;P1;durP2;ratioP2;P2;SDS_P1;SDS_P2;PMS_P1;PMS_P2;Temp;Humidity;BMP_temperature;BMP_pressure;BME280_temperature;BME280_humidity;BME280_pressure;Samples;Min_cycle;Max_cycle;Signal;HPM_P1;HPM_P2
2022/01/17 00:00:19;;;;;;;4.19;3.79;;;;;;;18.42;45.02;101966.42;;;;-52
2022/01/17 00:03:24;;;;;;;4.09;3.69;;;;;;;18.39;45.02;101968.37;;;;-52
2022/01/17 00:06:19;;;;;;;4.31;3.91;;;;;;;18.38;45.00;101968.16;;;;-58
2022/01/17 00:09:22;;;;;;;3.91;3.51;;;;;;;18.35;45.05;101965.14;;;;-52
2022/01/17 00:12:19;;;;;;;4.37;3.84;;;;;;;18.34;45.04;101964.72;;;;-52
2022/01/17 00:15:23;;;;;;;4.19;3.79;;;;;;;18.32;44.96;101966.59;;;;-52
2022/01/17 00:18:31;;;;;;;4.09;3.69;;;;;;;18.28;45.16;101970.11;;;;-53
2022/01/17 00:21:19;;;;;;;3.99;3.61;;;;;;;18.28;45.05;101972.06;;;;-52
2022/01/17 00:24:21;;;;;;;4.19;3.79;;;;;;;18.27;45.07;101972.48;;;;-52
2022/01/17 00:27:19;;;;;;;4.16;3.76;;;;;;;18.26;45.06;101974.38;;;;-52
2022/01/17 00:30:19;;;;;;;4.63;3.65;;;;;;;18.23;45.07;101974.28;;;;-54
2022/01/17 00:33:19;;;;;;;4.23;3.83;;;;;;;18.22;45.05;101971.22;;;;-60
2022/01/17 00:36:19;;;;;;;4.08;3.69;;;;;;;18.20;45.10;101970.26;;;;-60
2022/01/17 00:39:19;;;;;;;4.14;3.74;;;;;;;18.18;45.10;101983.70;;;;-57
2022/01/17 00:42:20;;;;;;;4.41;3.68;;;;;;;18.17;45.12;101982.91;;;;-57
2022/01/17 00:45:26;;;;;;;3.82;3.51;;;;;;;18.15;45.11;101983.56;;;;-52
2022/01/17 00:48:19;;;;;;;4.01;3.64;;;;;;;18.14;45.18;101979.41;;;;-54
2022/01/17 00:51:21;;;;;;;4.10;3.69;;;;;;;18.13;45.10;101981.86;;;;-60
2022/01/17 00:54:19;;;;;;;4.29;3.89;;;;;;;18.11;45.21;101986.42;;;;-52
2022/01/17 00:57:19;;;;;;;4.03;3.63;;;;;;;18.09;45.15;101993.01;;;;-52
2022/01/17 01:00:19;;;;;;;4.22;3.82;;;;;;;18.07;45.12;101993.05;;;;-52
2022/01/17 01:03:21;;;;;;;3.83;3.48;;;;;;;18.06;45.19;101987.38;;;;-58
2022/01/17 01:06:19;;;;;;;4.09;3.70;;;;;;;18.05;45.25;101984.26;;;;-52
2022/01/17 01:09:19;;;;;;;3.94;3.61;;;;;;;18.03;45.16;101989.81;;;;-53
2022/01/17 01:12:20;;;;;;;4.30;3.90;;;;;;;18.02;45.19;101991.46;;;;-58
2022/01/17 01:15:22;;;;;;;3.97;3.58;;;;;;;18.01;45.20;102002.43;;;;-55
2022/01/17 01:18:37;;;;;;;4.28;3.88;;;;;;;17.99;45.19;102007.34;;;;-56
2022/01/17 01:21:45;;;;;;;4.18;3.78;;;;;;;17.97;45.22;102001.31;;;;-58
2022/01/17 01:30:21;;;;;;;4.16;3.76;;;;;;;17.94;45.23;101991.64;;;;-55
2022/01/17 01:33:25;;;;;;;3.87;3.55;;;;;;;17.93;45.27;101991.66;;;;-55
2022/01/17 01:36:23;;;;;;;3.97;3.61;;;;;;;17.92;45.27;101994.09;;;;-60
2022/01/17 01:39:23;;;;;;;3.82;3.52;;;;;;;17.90;45.25;101997.50;;;;-55
2022/01/17 01:42:21;;;;;;;4.09;3.69;;;;;;;17.89;45.24;101994.56;;;;-55
2022/01/17 01:45:20;;;;;;;4.11;3.71;;;;;;;17.87;45.29;101985.88;;;;-55
2022/01/17 01:48:21;;;;;;;4.19;3.79;;;;;;;17.86;45.27;101981.93;;;;-52
2022/01/17 01:51:20;;;;;;;4.09;3.69;;;;;;;17.85;45.22;101982.33;;;;-57
2022/01/17 01:54:20;;;;;;;4.13;3.73;;;;;;;17.84;45.24;101980.23;;;;-57
2022/01/17 01:57:19;;;;;;;3.94;3.55;;;;;;;17.84;45.25;101989.47;;;;-58
2022/01/17 02:00:19;;;;;;;4.05;3.65;;;;;;;17.82;45.27;101997.64;;;;-52
2022/01/17 02:03:19;;;;;;;4.32;3.91;;;;;;;17.81;45.21;102006.21;;;;-52
2022/01/17 02:06:19;;;;;;;4.37;3.97;;;;;;;17.79;45.34;102010.94;;;;-52
2022/01/17 02:09:23;;;;;;;4.29;3.89;;;;;;;17.79;45.30;102015.95;;;;-58
2022/01/17 02:12:21;;;;;;;4.11;3.71;;;;;;;17.77;45.35;102011.82;;;;-60
2022/01/17 02:15:19;;;;;;;4.54;4.00;;;;;;;17.76;45.34;102016.06;;;;-59
2022/01/17 02:18:22;;;;;;;4.25;3.85;;;;;;;17.75;45.33;102025.13;;;;-55
2022/01/17 02:21:31;;;;;;;4.27;3.87;;;;;;;17.74;45.36;102027.34;;;;-55
2022/01/17 02:24:20;;;;;;;3.97;3.57;;;;;;;17.72;45.32;102023.94;;;;-52
2022/01/17 02:27:19;;;;;;;4.21;3.82;;;;;;;17.71;45.34;102020.42;;;;-52
2022/01/17 02:30:22;;;;;;;4.27;3.87;;;;;;;17.70;45.37;102013.84;;;;-59
2022/01/17 02:33:19;;;;;;;4.37;3.83;;;;;;;17.68;45.32;102012.15;;;;-58
2022/01/17 02:36:19;;;;;;;4.07;3.67;;;;;;;17.67;45.28;102011.44;;;;-59
2022/01/17 02:39:19;;;;;;;4.50;3.75;;;;;;;17.66;45.29;102019.28;;;;-57
2022/01/17 02:42:20;;;;;;;4.33;3.93;;;;;;;17.65;45.29;102031.96;;;;-54
2022/01/17 02:45:32;;;;;;;4.18;3.78;;;;;;;17.64;45.33;102033.14;;;;-55
2022/01/17 02:48:19;;;;;;;4.28;3.87;;;;;;;17.63;45.35;102030.42;;;;-59
2022/01/17 02:51:19;;;;;;;4.25;3.85;;;;;;;17.62;45.35;102024.55;;;;-58
2022/01/17 02:54:19;;;;;;;4.29;3.84;;;;;;;17.61;45.38;102019.14;;;;-52
2022/01/17 02:57:19;;;;;;;4.09;3.71;;;;;;;17.60;45.39;102015.75;;;;-58
2022/01/17 03:00:19;;;;;;;4.27;3.74;;;;;;;17.58;45.35;102007.78;;;;-59
2022/01/17 03:03:19;;;;;;;4.38;3.98;;;;;;;17.57;45.27;102000.42;;;;-55
2022/01/17 03:06:19;;;;;;;4.31;3.91;;;;;;;17.56;45.36;101997.97;;;;-60
2022/01/17 03:09:20;;;;;;;4.35;3.95;;;;;;;17.55;45.32;101993.38;;;;-54
2022/01/17 03:12:19;;;;;;;4.17;3.77;;;;;;;17.54;45.40;101991.16;;;;-55
2022/01/17 03:15:19;;;;;;;4.25;3.85;;;;;;;17.54;45.37;101977.38;;;;-55
2022/01/17 03:18:19;;;;;;;4.17;3.77;;;;;;;17.53;45.38;101981.95;;;;-59
2022/01/17 03:21:20;;;;;;;4.10;3.70;;;;;;;17.53;45.38;102003.09;;;;-60
2022/01/17 03:24:19;;;;;;;4.21;3.81;;;;;;;17.51;45.32;102012.52;;;;-58
2022/01/17 03:27:20;;;;;;;4.17;3.79;;;;;;;17.51;45.36;102015.18;;;;-57
2022/01/17 03:30:19;;;;;;;4.28;3.88;;;;;;;17.50;45.41;102021.06;;;;-58
2022/01/17 03:33:19;;;;;;;4.13;3.73;;;;;;;17.49;45.37;102019.23;;;;-59
2022/01/17 03:36:19;;;;;;;4.24;3.84;;;;;;;17.48;45.31;102018.23;;;;-55
2022/01/17 03:39:19;;;;;;;4.13;3.73;;;;;;;17.47;45.33;102022.97;;;;-55
2022/01/17 03:42:20;;;;;;;4.28;3.88;;;;;;;17.45;45.34;102024.02;;;;-59
2022/01/17 03:45:19;;;;;;;4.28;3.88;;;;;;;17.44;45.34;102034.04;;;;-52
2022/01/17 03:48:19;;;;;;;4.43;4.03;;;;;;;17.42;45.39;102026.35;;;;-57
2022/01/17 03:51:19;;;;;;;4.25;3.85;;;;;;;17.42;45.42;102016.78;;;;-58
2022/01/17 03:54:19;;;;;;;4.11;3.71;;;;;;;17.43;45.36;102019.72;;;;-58
2022/01/17 03:57:19;;;;;;;4.25;3.85;;;;;;;17.40;45.39;101999.60;;;;-52
2022/01/17 04:00:19;;;;;;;4.30;3.90;;;;;;;17.40;45.39;102003.08;;;;-52
2022/01/17 04:03:19;;;;;;;4.12;3.72;;;;;;;17.38;45.42;101997.98;;;;-52
2022/01/17 04:06:19;;;;;;;3.87;3.52;;;;;;;17.38;45.40;101987.36;;;;-52
2022/01/17 04:09:19;;;;;;;4.05;3.66;;;;;;;17.37;45.41;101986.45;;;;-52
2022/01/17 04:12:19;;;;;;;3.86;3.52;;;;;;;17.36;45.46;101983.16;;;;-52
2022/01/17 04:15:19;;;;;;;4.11;3.75;;;;;;;17.36;45.45;101987.28;;;;-57
2022/01/17 04:18:23;;;;;;;3.89;3.54;;;;;;;17.35;45.43;102000.92;;;;-57
2022/01/17 04:21:19;;;;;;;4.07;3.67;;;;;;;17.33;45.36;102008.42;;;;-57
2022/01/17 04:24:19;;;;;;;3.97;3.63;;;;;;;17.33;45.44;102010.35;;;;-57
2022/01/17 04:27:19;;;;;;;4.17;3.77;;;;;;;17.31;45.44;102001.36;;;;-55
2022/01/17 04:30:19;;;;;;;4.26;3.86;;;;;;;17.30;45.50;102003.58;;;;-52
2022/01/17 04:33:19;;;;;;;3.97;3.57;;;;;;;17.30;45.43;102004.22;;;;-60
2022/01/17 04:36:19;;;;;;;4.20;3.80;;;;;;;17.29;45.38;101990.43;;;;-59
2022/01/17 04:39:20;;;;;;;4.19;3.79;;;;;;;17.29;45.46;101992.03;;;;-57
2022/01/17 04:42:26;;;;;;;4.01;3.61;;;;;;;17.28;45.39;102003.90;;;;-57
2022/01/17 04:45:20;;;;;;;3.91;3.53;;;;;;;17.27;45.42;102009.70;;;;-57
2022/01/17 04:48:19;;;;;;;4.21;3.81;;;;;;;17.26;45.42;102012.24;;;;-57
2022/01/17 04:51:19;;;;;;;3.85;3.54;;;;;;;17.25;45.47;102013.19;;;;-57
2022/01/17 04:54:39;;;;;;;4.25;3.85;;;;;;;17.25;45.38;102017.97;;;;-57
2022/01/17 04:57:20;;;;;;;4.09;3.69;;;;;;;17.24;45.42;102020.42;;;;-52
2022/01/17 05:00:19;;;;;;;3.98;3.58;;;;;;;17.23;45.41;102015.78;;;;-60
2022/01/17 05:03:19;;;;;;;4.00;3.59;;;;;;;17.22;45.43;102021.56;;;;-59
2022/01/17 05:06:19;;;;;;;3.95;3.65;;;;;;;17.21;45.46;102017.09;;;;-52
2022/01/17 05:09:19;;;;;;;3.73;3.43;;;;;;;17.21;45.50;102018.55;;;;-52
2022/01/17 05:12:19;;;;;;;4.17;3.77;;;;;;;17.20;45.50;102013.70;;;;-52
2022/01/17 05:15:27;;;;;;;3.97;3.57;;;;;;;17.20;45.45;102016.12;;;;-57
2022/01/17 05:19:48;;;;;;;4.15;3.62;;;;;;;17.19;45.44;102012.47;;;;-57
2022/01/17 05:21:21;;;;;;;3.84;3.51;;;;;;;17.19;45.43;102014.31;;;;-54
2022/01/17 05:24:20;;;;;;;4.16;3.76;;;;;;;17.17;45.50;102011.16;;;;-54
2022/01/17 05:27:19;;;;;;;3.95;3.58;;;;;;;17.17;45.45;102003.62;;;;-57
2022/01/17 05:30:19;;;;;;;7.15;4.87;;;;;;;17.14;44.26;102003.13;;;;-54
2022/01/17 05:33:19;;;;;;;10.09;8.15;;;;;;;17.00;43.61;101996.86;;;;-55
2022/01/17 05:36:19;;;;;;;10.55;8.08;;;;;;;16.97;43.47;101997.13;;;;-52
2022/01/17 05:39:19;;;;;;;12.94;8.66;;;;;;;16.93;43.24;101994.17;;;;-52
2022/01/17 05:42:20;;;;;;;11.65;8.72;;;;;;;16.91;43.05;101990.64;;;;-58
2022/01/17 05:45:19;;;;;;;11.37;9.01;;;;;;;16.84;42.81;101994.34;;;;-55
2022/01/17 05:48:19;;;;;;;11.39;8.95;;;;;;;16.81;42.69;102000.25;;;;-55
2022/01/17 05:51:19;;;;;;;10.53;8.57;;;;;;;16.84;43.21;102008.66;;;;-55
2022/01/17 05:54:19;;;;;;;9.80;8.23;;;;;;;16.86;43.69;102016.92;;;;-59
2022/01/17 05:57:19;;;;;;;8.82;7.03;;;;;;;16.90;43.87;102025.19;;;;-53
2022/01/17 06:00:19;;;;;;;9.39;7.32;;;;;;;16.92;44.04;102034.19;;;;-54
2022/01/17 06:03:19;;;;;;;12.96;7.33;;;;;;;16.97;44.00;102043.13;;;;-58
2022/01/17 06:06:19;;;;;;;9.39;6.66;;;;;;;17.02;44.16;102045.05;;;;-58
2022/01/17 06:09:19;;;;;;;7.71;6.41;;;;;;;17.06;44.35;102038.25;;;;-56
2022/01/17 06:12:19;;;;;;;7.23;5.89;;;;;;;17.11;44.44;102043.95;;;;-57
2022/01/17 06:15:20;;;;;;;6.92;5.47;;;;;;;17.16;44.50;102038.88;;;;-55
2022/01/17 06:18:19;;;;;;;7.53;5.63;;;;;;;17.18;44.53;102045.01;;;;-56
2022/01/17 06:21:19;;;;;;;6.66;5.33;;;;;;;17.23;44.60;102045.44;;;;-58
2022/01/17 06:24:19;;;;;;;6.13;5.34;;;;;;;17.26;44.65;102037.20;;;;-59
2022/01/17 06:27:19;;;;;;;6.15;5.36;;;;;;;17.30;44.72;102042.31;;;;-58
2022/01/17 06:30:19;;;;;;;6.29;4.95;;;;;;;17.34;44.70;102060.95;;;;-59
2022/01/17 06:33:19;;;;;;;5.82;4.85;;;;;;;17.37;44.74;102067.77;;;;-58
2022/01/17 06:36:19;;;;;;;5.57;4.75;;;;;;;17.41;44.72;102076.61;;;;-54
2022/01/17 06:39:19;;;;;;;5.07;4.50;;;;;;;17.42;44.76;102089.32;;;;-54
2022/01/17 06:42:20;;;;;;;6.04;4.69;;;;;;;17.44;44.76;102085.19;;;;-54
2022/01/17 06:45:21;;;;;;;5.46;4.42;;;;;;;17.46;44.77;102074.89;;;;-54
2022/01/17 06:48:19;;;;;;;4.67;4.23;;;;;;;17.46;44.75;102024.73;;;;-55
2022/01/17 06:51:19;;;;;;;5.69;4.47;;;;;;;17.48;44.82;102046.53;;;;-55
2022/01/17 06:54:19;;;;;;;4.71;4.23;;;;;;;17.49;44.83;102025.48;;;;-55
2022/01/17 06:57:19;;;;;;;4.73;4.25;;;;;;;17.50;44.83;102017.19;;;;-58
2022/01/17 07:00:19;;;;;;;5.31;4.40;;;;;;;17.51;44.82;102028.47;;;;-58
2022/01/17 07:03:19;;;;;;;4.90;4.21;;;;;;;17.51;44.88;102042.34;;;;-55
2022/01/17 07:06:19;;;;;;;4.97;4.27;;;;;;;17.51;44.84;102033.98;;;;-56
2022/01/17 07:09:21;;;;;;;4.65;4.15;;;;;;;17.52;44.94;102062.00;;;;-55
2022/01/17 07:12:19;;;;;;;5.03;4.20;;;;;;;17.52;44.95;102074.02;;;;-56
2022/01/17 07:15:19;;;;;;;4.55;4.11;;;;;;;17.52;44.96;102082.11;;;;-56
2022/01/17 07:18:19;;;;;;;4.61;4.13;;;;;;;17.52;44.92;102097.27;;;;-59
2022/01/17 07:21:19;;;;;;;4.47;4.07;;;;;;;17.52;44.99;102113.39;;;;-58
2022/01/17 07:24:19;;;;;;;4.22;3.82;;;;;;;17.52;44.94;102138.59;;;;-58
2022/01/17 07:27:19;;;;;;;4.63;4.23;;;;;;;17.52;44.92;102158.64;;;;-59
2022/01/17 07:30:21;;;;;;;4.57;4.17;;;;;;;17.52;44.90;102139.66;;;;-59
2022/01/17 07:33:21;;;;;;;4.73;4.19;;;;;;;17.51;44.98;102121.13;;;;-58
2022/01/17 07:36:20;;;;;;;4.39;3.99;;;;;;;17.52;44.92;102115.02;;;;-56
2022/01/17 07:39:19;;;;;;;4.35;3.95;;;;;;;17.51;44.91;102112.86;;;;-55
2022/01/17 07:42:19;;;;;;;4.64;4.18;;;;;;;17.51;44.89;102123.73;;;;-55
2022/01/17 07:45:20;;;;;;;4.33;3.93;;;;;;;17.51;44.92;102118.60;;;;-54
2022/01/17 07:52:19;;;;;;;4.86;4.34;;;;;;;17.50;44.87;102137.32;;;;-58
2022/01/17 07:55:19;;;;;;;4.95;4.13;;;;;;;17.50;44.96;102133.25;;;;-58
2022/01/17 07:58:19;;;;;;;4.37;3.96;;;;;;;17.49;44.89;102133.56;;;;-58
2022/01/17 08:01:20;;;;;;;4.26;3.86;;;;;;;17.49;44.92;102137.01;;;;-54
2022/01/17 08:04:19;;;;;;;4.36;3.96;;;;;;;17.49;44.93;102130.84;;;;-55
2022/01/17 08:07:19;;;;;;;4.30;3.90;;;;;;;17.48;44.85;102136.67;;;;-55
2022/01/17 08:10:19;;;;;;;4.25;3.85;;;;;;;17.48;44.86;102138.61;;;;-55
2022/01/17 08:13:19;;;;;;;4.23;3.79;;;;;;;17.47;44.85;102144.45;;;;-55
2022/01/17 08:16:19;;;;;;;4.18;3.78;;;;;;;17.46;44.94;102143.63;;;;-54
2022/01/17 08:19:19;;;;;;;4.28;3.88;;;;;;;17.45;44.88;102137.86;;;;-55
2022/01/17 08:22:19;;;;;;;4.50;4.09;;;;;;;17.45;44.84;102141.61;;;;-55
2022/01/17 08:25:19;;;;;;;4.18;3.78;;;;;;;17.44;44.90;102145.31;;;;-55
2022/01/17 08:28:19;;;;;;;4.28;3.88;;;;;;;17.44;44.92;102151.89;;;;-54
2022/01/17 08:31:19;;;;;;;4.11;3.70;;;;;;;17.43;44.91;102151.98;;;;-54
2022/01/17 08:34:19;;;;;;;4.35;3.94;;;;;;;17.42;44.92;102149.12;;;;-55
2022/01/17 08:37:19;;;;;;;4.15;3.73;;;;;;;17.41;44.88;102147.00;;;;-55
2022/01/17 08:40:20;;;;;;;4.13;3.73;;;;;;;17.39;44.89;102147.33;;;;-55
2022/01/17 08:43:19;;;;;;;4.23;3.83;;;;;;;17.39;44.82;102153.56;;;;-54
2022/01/17 08:46:19;;;;;;;5.79;3.93;;;;;;;17.40;44.92;102157.47;;;;-54
2022/01/17 08:49:19;;;;;;;4.87;3.78;;;;;;;17.39;44.89;102158.95;;;;-55
2022/01/17 08:52:20;;;;;;;5.89;3.77;;;;;;;17.38;44.81;102154.88;;;;-57
2022/01/17 08:55:21;;;;;;;8.11;3.87;;;;;;;17.37;44.91;102152.10;;;;-55
2022/01/17 08:58:19;;;;;;;6.73;3.71;;;;;;;17.36;44.90;102148.23;;;;-60
2022/01/17 09:01:19;;;;;;;9.41;3.80;;;;;;;17.37;45.29;102149.79;;;;-51
2022/01/17 09:04:19;;;;;;;4.91;3.87;;;;;;;17.38;45.41;102155.45;;;;-52
2022/01/17 09:07:19;;;;;;;6.66;3.91;;;;;;;17.41;45.65;102166.50;;;;-60
2022/01/17 09:10:19;;;;;;;4.07;3.58;;;;;;;17.44;45.81;102180.74;;;;-60
2022/01/17 09:13:19;;;;;;;6.03;3.72;;;;;;;17.49;45.84;102178.59;;;;-60
2022/01/17 09:16:19;;;;;;;4.37;3.57;;;;;;;17.54;45.97;102168.92;;;;-52
2022/01/17 09:19:19;;;;;;;4.89;3.62;;;;;;;17.59;45.93;102169.69;;;;-52
2022/01/17 09:22:19;;;;;;;4.33;3.65;;;;;;;17.65;45.96;102153.16;;;;-52
2022/01/17 09:25:19;;;;;;;3.71;3.35;;;;;;;17.70;46.01;102144.98;;;;-54
2022/01/17 09:28:19;;;;;;;6.39;3.61;;;;;;;17.74;46.01;102146.26;;;;-62
2022/01/17 09:31:19;;;;;;;4.21;3.52;;;;;;;17.77;45.64;102160.16;;;;-59
2022/01/17 09:34:19;;;;;;;4.65;3.59;;;;;;;17.80;45.57;102164.55;;;;-51
2022/01/17 09:37:19;;;;;;;5.61;3.49;;;;;;;17.83;45.52;102173.22;;;;-51
2022/01/17 09:40:19;;;;;;;6.02;3.96;;;;;;;17.85;45.16;102181.92;;;;-51
2022/01/17 09:43:19;;;;;;;4.57;3.64;;;;;;;17.88;45.29;102187.55;;;;-50
2022/01/17 09:46:23;;;;;;;3.73;3.39;;;;;;;17.91;45.29;102195.80;;;;-57
2022/01/17 09:49:27;;;;;;;3.60;3.27;;;;;;;17.94;45.32;102206.84;;;;-60
2022/01/17 09:52:36;;;;;;;4.89;3.51;;;;;;;17.96;45.28;102194.35;;;;-60
2022/01/17 09:55:21;;;;;;;3.88;3.39;;;;;;;18.00;45.29;102214.80;;;;-59
2022/01/17 09:58:19;;;;;;;4.42;3.91;;;;;;;18.01;44.61;102208.50;;;;-53
2022/01/17 10:01:19;;;;;;;4.59;4.12;;;;;;;18.02;44.36;102215.78;;;;-53
2022/01/17 10:04:19;;;;;;;4.35;3.77;;;;;;;18.04;44.25;102247.56;;;;-53
2022/01/17 10:07:20;;;;;;;4.47;4.01;;;;;;;18.05;43.95;102220.42;;;;-53
2022/01/17 10:10:19;;;;;;;4.97;4.27;;;;;;;18.06;43.80;102230.37;;;;-53
2022/01/17 10:13:23;;;;;;;5.50;4.33;;;;;;;18.07;43.67;102232.76;;;;-53
2022/01/17 10:16:21;;;;;;;4.73;4.25;;;;;;;18.09;43.56;102230.32;;;;-53
2022/01/17 10:19:19;;;;;;;5.37;4.17;;;;;;;18.10;43.40;102236.05;;;;-53
2022/01/17 10:22:23;;;;;;;5.75;4.29;;;;;;;18.12;43.36;102226.55;;;;-52
2022/01/17 10:25:27;;;;;;;5.67;4.29;;;;;;;18.13;43.48;102223.33;;;;-58
2022/01/17 10:28:56;;;;;;;5.03;4.51;;;;;;;18.14;43.38;102227.28;;;;-52
2022/01/17 10:34:52;;;;;;;7.10;4.58;;;;;;;18.16;43.80;102221.81;;;;-53
2022/01/17 10:37:22;;;;;;;9.02;5.21;;;;;;;18.23;44.30;102221.70;;;;-59
2022/01/17 10:40:19;;;;;;;8.17;4.34;;;;;;;18.26;44.25;102212.98;;;;-59
2022/01/17 10:43:19;;;;;;;5.33;4.02;;;;;;;18.28;44.36;102229.41;;;;-58
2022/01/17 10:46:19;;;;;;;4.71;3.97;;;;;;;18.31;44.34;102238.60;;;;-59
2022/01/17 10:49:19;;;;;;;5.09;4.10;;;;;;;18.36;44.38;102242.11;;;;-59
2022/01/17 10:52:19;;;;;;;5.97;3.91;;;;;;;18.40;44.39;102243.08;;;;-59
2022/01/17 10:55:19;;;;;;;4.40;4.00;;;;;;;18.43;44.39;102243.54;;;;-60
2022/01/17 10:58:21;;;;;;;6.30;4.44;;;;;;;18.45;44.37;102259.36;;;;-61
2022/01/17 11:01:19;;;;;;;4.44;3.79;;;;;;;18.50;44.35;102272.20;;;;-62
2022/01/17 11:04:19;;;;;;;6.18;4.16;;;;;;;18.51;44.19;102270.77;;;;-58
2022/01/17 11:07:19;;;;;;;12.15;4.29;;;;;;;18.54;44.03;102254.50;;;;-59
2022/01/17 11:10:19;;;;;;;5.62;4.02;;;;;;;18.56;44.23;102246.64;;;;-62
2022/01/17 11:13:19;;;;;;;4.63;3.71;;;;;;;18.57;44.32;102228.50;;;;-60
2022/01/17 11:16:21;;;;;;;4.87;3.83;;;;;;;18.60;44.36;102224.46;;;;-59
2022/01/17 11:22:19;;;;;;;10.85;4.14;;;;;;;18.70;45.00;102230.85;;;;-58
2022/01/17 11:25:19;;;;;;;6.28;3.86;;;;;;;18.74;44.93;102227.92;;;;-54
2022/01/17 11:28:22;;;;;;;8.41;3.95;;;;;;;18.78;44.83;102223.24;;;;-52
2022/01/17 11:31:19;;;;;;;4.93;3.71;;;;;;;18.82;44.82;102224.28;;;;-55
2022/01/17 11:34:19;;;;;;;4.78;3.78;;;;;;;18.88;44.87;102223.66;;;;-54
2022/01/17 11:37:19;;;;;;;8.71;3.89;;;;;;;18.95;44.84;102211.34;;;;-57
2022/01/17 11:40:19;;;;;;;6.08;3.80;;;;;;;18.96;44.75;102210.64;;;;-58
2022/01/17 11:43:19;;;;;;;5.89;3.88;;;;;;;19.00;44.87;102213.86;;;;-60
2022/01/17 11:46:19;;;;;;;7.99;3.75;;;;;;;19.02;44.70;102200.28;;;;-61
2022/01/17 11:49:19;;;;;;;5.91;3.85;;;;;;;19.01;44.54;102197.50;;;;-60
2022/01/17 11:52:19;;;;;;;4.78;3.41;;;;;;;19.02;44.58;102191.42;;;;-54
2022/01/17 11:55:19;;;;;;;3.95;3.39;;;;;;;19.03;44.55;102180.77;;;;-54
2022/01/17 11:58:21;;;;;;;5.23;3.32;;;;;;;19.03;44.48;102175.64;;;;-56
2022/01/17 12:01:20;;;;;;;5.33;3.55;;;;;;;19.05;44.58;102161.62;;;;-58
2022/01/17 12:04:19;;;;;;;4.36;3.40;;;;;;;19.05;44.44;102143.45;;;;-58
2022/01/17 12:07:19;;;;;;;4.41;3.56;;;;;;;19.06;44.50;102146.33;;;;-58
2022/01/17 12:10:19;;;;;;;4.91;3.39;;;;;;;19.07;44.49;102170.92;;;;-55
2022/01/17 12:13:22;;;;;;;4.43;3.36;;;;;;;19.09;44.52;102180.13;;;;-55
2022/01/17 12:17:19;;;;;;;4.05;3.43;;;;;;;19.12;44.46;102165.86;;;;-56
2022/01/17 12:20:21;;;;;;;4.30;3.53;;;;;;;19.12;44.42;102157.82;;;;-54
2022/01/17 12:23:19;;;;;;;4.35;3.37;;;;;;;19.13;44.42;102158.25;;;;-61
2022/01/17 12:26:19;;;;;;;4.01;3.33;;;;;;;19.15;44.42;102163.36;;;;-63
2022/01/17 12:29:19;;;;;;;3.74;3.30;;;;;;;19.15;44.42;102160.67;;;;-61
2022/01/17 12:32:19;;;;;;;3.65;3.19;;;;;;;19.19;44.50;102142.20;;;;-58
2022/01/17 12:35:20;;;;;;;3.57;3.11;;;;;;;19.18;44.44;102145.28;;;;-58
2022/01/17 12:38:19;;;;;;;3.91;3.34;;;;;;;19.17;44.42;102152.17;;;;-58
2022/01/17 12:41:19;;;;;;;3.22;2.92;;;;;;;19.19;44.43;102140.50;;;;-58
2022/01/17 12:44:19;;;;;;;4.48;3.15;;;;;;;19.21;44.38;102137.81;;;;-61
2022/01/17 12:47:19;;;;;;;3.57;3.27;;;;;;;19.22;44.38;102141.42;;;;-61
2022/01/17 12:50:19;;;;;;;7.27;3.26;;;;;;;19.23;44.24;102130.72;;;;-53
2022/01/17 12:53:19;;;;;;;7.79;4.21;;;;;;;19.25;44.10;102141.02;;;;-53
2022/01/17 12:56:19;;;;;;;7.60;4.03;;;;;;;19.26;43.98;102151.94;;;;-51
2022/01/17 12:59:19;;;;;;;10.21;4.11;;;;;;;19.29;44.08;102141.66;;;;-60
2022/01/17 13:02:19;;;;;;;8.87;3.66;;;;;;;19.29;44.02;102140.20;;;;-51
2022/01/17 13:05:19;;;;;;;10.86;3.77;;;;;;;19.31;44.27;102145.55;;;;-51
2022/01/17 13:08:19;;;;;;;7.85;3.87;;;;;;;19.39;44.52;102149.97;;;;-52
2022/01/17 13:11:19;;;;;;;9.07;3.60;;;;;;;19.38;44.45;102139.88;;;;-52
2022/01/17 13:14:19;;;;;;;7.48;3.63;;;;;;;19.39;44.52;102121.44;;;;-57
2022/01/17 13:17:19;;;;;;;6.58;3.37;;;;;;;19.40;44.55;102106.73;;;;-56
2022/01/17 13:20:19;;;;;;;7.70;3.73;;;;;;;19.43;44.92;102118.81;;;;-52
2022/01/17 13:23:29;;;;;;;6.07;3.31;;;;;;;19.45;45.03;102123.66;;;;-52
2022/01/17 13:26:19;;;;;;;7.83;3.43;;;;;;;19.45;44.60;102122.69;;;;-52
2022/01/17 13:29:19;;;;;;;6.87;3.47;;;;;;;19.45;44.40;102115.13;;;;-51
2022/01/17 13:32:19;;;;;;;17.42;3.67;;;;;;;19.49;44.78;102122.10;;;;-60
2022/01/17 13:35:22;;;;;;;7.59;3.71;;;;;;;19.49;44.61;102138.76;;;;-60
2022/01/17 13:38:20;;;;;;;9.07;3.79;;;;;;;19.49;44.25;102143.89;;;;-54
2022/01/17 13:41:19;;;;;;;6.66;3.45;;;;;;;19.53;44.43;102120.60;;;;-52
2022/01/17 13:44:19;;;;;;;7.39;3.41;;;;;;;19.52;44.32;102108.60;;;;-53
2022/01/17 13:47:20;;;;;;;6.06;3.25;;;;;;;19.53;44.36;102114.50;;;;-58
2022/01/17 13:50:19;;;;;;;6.62;3.23;;;;;;;19.52;44.36;102133.08;;;;-58
2022/01/17 13:53:19;;;;;;;5.35;3.35;;;;;;;19.53;44.24;102129.67;;;;-57
2022/01/17 13:56:19;;;;;;;13.38;3.71;;;;;;;19.51;43.99;102110.53;;;;-57
2022/01/17 13:59:19;;;;;;;6.43;3.40;;;;;;;19.52;44.06;102112.91;;;;-58
2022/01/17 14:02:19;;;;;;;4.13;3.20;;;;;;;19.52;44.16;102121.84;;;;-58
2022/01/17 14:05:19;;;;;;;6.25;3.50;;;;;;;19.51;44.05;102122.97;;;;-58
2022/01/17 14:08:19;;;;;;;5.73;3.42;;;;;;;19.50;44.09;102119.75;;;;-58
2022/01/17 14:11:19;;;;;;;7.08;3.39;;;;;;;19.54;44.19;102099.55;;;;-53
2022/01/17 14:14:20;;;;;;;5.27;3.53;;;;;;;19.58;44.21;102104.73;;;;-59
2022/01/17 14:17:19;;;;;;;7.17;3.41;;;;;;;19.57;44.16;102118.70;;;;-55
2022/01/17 14:20:22;;;;;;;5.90;3.07;;;;;;;19.55;44.18;102116.68;;;;-59
2022/01/17 14:23:19;;;;;;;6.01;3.10;;;;;;;19.54;44.19;102117.12;;;;-59
2022/01/17 14:26:19;;;;;;;6.75;3.21;;;;;;;19.53;44.16;102110.77;;;;-59
2022/01/17 14:29:19;;;;;;;4.79;3.25;;;;;;;19.52;43.96;102104.77;;;;-59
2022/01/17 14:32:19;;;;;;;4.27;3.07;;;;;;;19.51;44.02;102110.53;;;;-59
2022/01/17 14:35:19;;;;;;;4.82;3.27;;;;;;;19.51;44.06;102111.52;;;;-60
2022/01/17 14:38:19;;;;;;;4.95;3.21;;;;;;;19.52;44.06;102111.20;;;;-55
2022/01/17 14:41:19;;;;;;;4.62;3.01;;;;;;;19.51;44.17;102115.58;;;;-57
2022/01/17 14:44:19;;;;;;;5.43;3.41;;;;;;;19.55;43.76;102118.80;;;;-53
2022/01/17 14:47:19;;;;;;;5.82;3.21;;;;;;;19.55;43.81;102133.97;;;;-53
2022/01/17 14:50:20;;;;;;;4.29;3.29;;;;;;;19.54;43.85;102132.66;;;;-53
2022/01/17 14:53:19;;;;;;;4.08;3.01;;;;;;;19.55;43.99;102138.80;;;;-53
2022/01/17 14:59:38;;;;;;;4.15;3.26;;;;;;;19.57;44.16;102141.23;;;;-50
2022/01/17 15:02:25;;;;;;;3.93;2.95;;;;;;;19.57;44.11;102137.81;;;;-51
2022/01/17 15:05:19;;;;;;;5.35;3.09;;;;;;;19.57;44.20;102131.63;;;;-52
2022/01/17 15:08:19;;;;;;;4.57;3.10;;;;;;;19.58;44.21;102141.08;;;;-51
2022/01/17 15:11:19;;;;;;;3.11;2.81;;;;;;;19.59;44.23;102151.70;;;;-52
2022/01/17 15:14:19;;;;;;;4.20;2.69;;;;;;;19.60;44.23;102149.20;;;;-53
2022/01/17 15:17:19;;;;;;;5.06;2.85;;;;;;;19.61;44.22;102149.13;;;;-56
2022/01/17 15:20:19;;;;;;;3.77;2.86;;;;;;;19.62;44.22;102146.00;;;;-58
2022/01/17 15:23:22;;;;;;;3.13;2.80;;;;;;;19.63;44.24;102147.33;;;;-58
2022/01/17 15:26:19;;;;;;;3.73;3.04;;;;;;;19.64;44.29;102154.12;;;;-58
2022/01/17 15:29:24;;;;;;;3.13;2.69;;;;;;;19.66;44.23;102172.09;;;;-58
2022/01/17 15:32:19;;;;;;;3.99;2.63;;;;;;;19.66;44.22;102176.56;;;;-58
2022/01/17 15:35:23;;;;;;;3.54;2.89;;;;;;;19.67;44.05;102170.92;;;;-58
2022/01/17 15:38:21;;;;;;;5.01;3.01;;;;;;;19.69;44.18;102165.06;;;;-58
2022/01/17 15:41:19;;;;;;;5.89;2.93;;;;;;;19.69;44.19;102166.32;;;;-57
2022/01/17 15:44:19;;;;;;;3.39;3.09;;;;;;;19.70;44.20;102174.25;;;;-60
2022/01/17 15:47:19;;;;;;;3.07;2.69;;;;;;;19.70;44.19;102177.06;;;;-59
2022/01/17 15:50:19;;;;;;;3.87;2.88;;;;;;;19.73;44.19;102176.40;;;;-57
2022/01/17 15:53:19;;;;;;;3.25;2.94;;;;;;;19.73;44.24;102170.05;;;;-58
2022/01/17 15:56:19;;;;;;;3.01;2.71;;;;;;;19.72;44.17;102164.67;;;;-58
2022/01/17 15:59:19;;;;;;;3.00;2.67;;;;;;;19.74;44.24;102173.03;;;;-53
2022/01/17 16:02:19;;;;;;;4.27;2.87;;;;;;;19.73;43.90;102184.38;;;;-59
2022/01/17 16:05:19;;;;;;;4.51;3.73;;;;;;;19.70;43.56;102187.80;;;;-59
2022/01/17 16:08:19;;;;;;;5.01;3.79;;;;;;;19.69;43.52;102188.05;;;;-58
2022/01/17 16:11:19;;;;;;;4.58;3.92;;;;;;;19.68;43.49;102189.56;;;;-56
2022/01/17 16:14:19;;;;;;;5.07;4.19;;;;;;;19.67;43.64;102194.19;;;;-56
2022/01/17 16:17:21;;;;;;;6.27;4.09;;;;;;;19.66;43.58;102193.09;;;;-53
2022/01/17 16:20:19;;;;;;;5.03;3.86;;;;;;;19.69;43.95;102203.17;;;;-57
2022/01/17 16:23:19;;;;;;;7.01;3.83;;;;;;;19.74;44.05;102216.89;;;;-53
2022/01/17 16:26:20;;;;;;;4.40;3.28;;;;;;;19.79;44.10;102218.03;;;;-61
2022/01/17 16:29:19;;;;;;;4.28;3.39;;;;;;;19.83;44.14;102215.05;;;;-58
2022/01/17 16:32:19;;;;;;;4.29;3.17;;;;;;;19.87;44.08;102209.00;;;;-62
2022/01/17 16:35:19;;;;;;;4.07;3.33;;;;;;;19.87;43.93;102213.25;;;;-61
2022/01/17 16:38:19;;;;;;;4.70;3.64;;;;;;;19.89;44.06;102213.47;;;;-58
2022/01/17 16:41:19;;;;;;;5.89;3.91;;;;;;;19.92;44.08;102212.45;;;;-62
2022/01/17 16:44:19;;;;;;;4.55;3.35;;;;;;;19.93;44.00;102213.77;;;;-58
2022/01/17 16:47:19;;;;;;;5.15;3.32;;;;;;;19.93;43.98;102223.78;;;;-61
2022/01/17 16:50:23;;;;;;;4.35;3.20;;;;;;;19.92;43.97;102210.83;;;;-61
2022/01/17 16:53:19;;;;;;;6.17;3.20;;;;;;;19.95;44.49;102220.17;;;;-56
2022/01/17 16:56:19;;;;;;;6.07;3.27;;;;;;;19.96;44.55;102226.22;;;;-54
2022/01/17 16:59:19;;;;;;;3.41;3.11;;;;;;;20.01;44.38;102217.61;;;;-52